• Join FlightAware (Why Join?)
  • Login
  • US Flag 
12:30PM EDT


 

Airport Tracker/Info


-or-


 

Live Flight TrackerFlight Track Log ✈ FDX1347 ✈ 23-Aug-2013 ✈ KALB - KMEM

Flight Track Log - Related Links

Times and Time Zones

All times are in EDT time to prevent confusion due to time zone crossing. See the FDX1347 flight status page for this flight to view local times or setup timezone preferences in your user account.

Time Position Orientation Groundspeed Altitude Reporting Facility
EDT Latitude Longitude Course Direction KTS MPH feet Rate Location/Type
09:55PM 42.7631 -73.8089 274° West 172 198 1,600  Level Boston Center
10:00PM 42.7920 -74.4760 275° West 408 470 18,600 3,060 Climbing FlightAware
10:01PM 42.7980 -74.5690 275° West 415 478 20,500 3,120 Climbing FlightAware
10:01PM 42.8040 -74.6580 275° West 416 479 22,300 3,000 Climbing FlightAware
10:02PM 42.8100 -74.7460 275° West 418 481 24,000 2,580 Climbing FlightAware
10:03PM 42.8000 -74.8470 262° West 433 498 25,400 2,220 Climbing FlightAware
10:03PM 42.7900 -74.8740 243° Southwest 436 502 25,800 1,860 Climbing FlightAware
10:03PM 42.7450 -74.9540 233° Southwest 447 514 26,900 1,200 Climbing FlightAware
10:04PM 42.7020 -75.0270 231° Southwest 449 517 27,200 1,380 Climbing FlightAware
10:05PM 42.6560 -75.1070 232° Southwest 452 520 28,500 1,500 Climbing FlightAware
10:05PM 42.6100 -75.1860 232° Southwest 457 526 29,000 360 Climbing FlightAware
10:06PM 42.5630 -75.2700 233° Southwest 456 525 29,000  Level FlightAware
10:06PM 42.5170 -75.3490 232° Southwest 456 525 29,000  Level FlightAware
10:07PM 42.4740 -75.4230 232° Southwest 458 527 29,000 60 Level FlightAware
10:08PM 42.4280 -75.5020 232° Southwest 459 528 29,100 1,020 Climbing FlightAware
10:08PM 42.3850 -75.5770 232° Southwest 459 528 30,200 2,280 Climbing FlightAware
10:09PM 42.3360 -75.6600 231° Southwest 455 524 31,800 2,220 Climbing FlightAware
10:09PM 42.2900 -75.7380 231° Southwest 459 528 32,900 2,220 Climbing FlightAware
10:10PM 42.2490 -75.8070 231° Southwest 452 520 34,300 2,280 Climbing FlightAware
10:10PM 42.2000 -75.8910 232° Southwest 451 519 35,600 1,380 Climbing FlightAware
10:11PM 42.1520 -75.9720 231° Southwest 451 519 36,000 900 Climbing FlightAware
10:12PM 42.1080 -76.0530 234° Southwest 447 514 36,700 1,140 Climbing FlightAware
10:12PM 42.0710 -76.1250 235° Southwest 451 519 37,300 1,140 Climbing FlightAware
10:13PM 42.0310 -76.2090 237° Southwest 447 514 38,000 600 Climbing FlightAware
10:13PM 41.9950 -76.2860 238° Southwest 441 507 38,000  Level FlightAware
10:14PM 41.9746 -76.3301 238° Southwest 440 506 38,000  Level FlightAware ADS-B
10:14PM 41.9419 -76.3998 238° Southwest 442 509 38,000  Level FlightAware ADS-B
10:15PM 41.9073 -76.4716 237° Southwest 446 513 38,000  Level FlightAware ADS-B
10:15PM 41.8701 -76.5512 238° Southwest 450 518 38,000  Level FlightAware ADS-B
10:16PM 41.8345 -76.6242 237° Southwest 452 520 38,000  Level FlightAware ADS-B
10:16PM 41.7945 -76.7067 237° Southwest 454 522 38,000  Level FlightAware ADS-B
10:17PM 41.7533 -76.7921 237° Southwest 457 526 38,000  Level FlightAware ADS-B
10:18PM 41.7052 -76.8918 237° Southwest 459 528 38,000  Level FlightAware ADS-B
10:18PM 41.6599 -76.9850 237° Southwest 460 529 38,000  Level FlightAware ADS-B
10:19PM 41.6244 -77.0590 237° Southwest 462 532 38,000  Level FlightAware ADS-B
10:19PM 41.5950 -77.1190 237° Southwest 464 534 38,000  Level FlightAware
10:20PM 41.5570 -77.1980 237° Southwest 465 535 38,000  Level FlightAware
10:21PM 41.5050 -77.3010 236° Southwest 458 527 38,000  Level FlightAware
10:21PM 41.4730 -77.3690 238° Southwest 454 522 38,000  Level FlightAware
10:22PM 41.4310 -77.4530 236° Southwest 451 519 38,000  Level FlightAware
10:22PM 41.3930 -77.5290 236° Southwest 452 520 38,000  Level FlightAware
10:23PM 41.3510 -77.6130 236° Southwest 456 525 38,000  Level FlightAware
10:23PM 41.3100 -77.6980 237° Southwest 456 525 38,000  Level FlightAware
10:24PM 41.2690 -77.7790 236° Southwest 455 524 38,000  Level FlightAware
10:25PM 41.2240 -77.8680 236° Southwest 454 522 38,000  Level FlightAware
10:25PM 41.1880 -77.9400 236° Southwest 453 521 38,000  Level FlightAware
10:26PM 41.1470 -78.0230 237° Southwest 453 521 38,000  Level FlightAware
10:26PM 41.1070 -78.1040 237° Southwest 453 521 38,000  Level FlightAware
10:27PM 41.0670 -78.1820 236° Southwest 452 520 38,000  Level FlightAware
10:27PM 41.0260 -78.2620 236° Southwest 451 519 38,000  Level FlightAware
10:28PM 40.9890 -78.3360 236° Southwest 451 519 38,000  Level FlightAware
10:29PM 40.9270 -78.4570 236° Southwest 449 517 38,000  Level FlightAware
10:29PM 40.8870 -78.5370 237° Southwest 448 516 38,000  Level FlightAware
10:30PM 40.8450 -78.6180 236° Southwest 448 516 38,000  Level FlightAware
10:31PM 40.8060 -78.6930 236° Southwest 447 514 38,000  Level FlightAware
10:31PM 40.7600 -78.7830 236° Southwest 447 514 38,000  Level FlightAware
10:32PM 40.7190 -78.8620 236° Southwest 446 513 38,000  Level FlightAware
10:32PM 40.6840 -78.9290 235° Southwest 444 511 38,000  Level FlightAware
10:33PM 40.6420 -79.0100 236° Southwest 444 511 38,000  Level FlightAware
10:34PM 40.6110 -79.0720 237° Southwest 444 511 38,000  Level FlightAware
10:34PM 40.5640 -79.1590 235° Southwest 442 509 38,000  Level FlightAware
10:35PM 40.5220 -79.2410 236° Southwest 443 510 38,000  Level FlightAware
10:35PM 40.4840 -79.3140 236° Southwest 443 510 38,000  Level FlightAware
10:36PM 40.4310 -79.4140 235° Southwest 443 510 38,000  Level FlightAware
10:37PM 40.3890 -79.4930 235° Southwest 443 510 38,000  Level FlightAware
10:37PM 40.3540 -79.5620 236° Southwest 443 510 38,000  Level FlightAware
10:38PM 40.3120 -79.6390 234° Southwest 443 510 38,000  Level FlightAware
10:38PM 40.2520 -79.7510 235° Southwest 443 510 38,000  Level FlightAware
10:39PM 40.2140 -79.8240 236° Southwest 443 510 38,000  Level FlightAware
10:40PM 40.1770 -79.8920 235° Southwest 445 512 38,000  Level FlightAware
10:40PM 40.1310 -79.9790 235° Southwest 446 513 38,000  Level FlightAware
10:41PM 40.0900 -80.0560 235° Southwest 448 516 38,000  Level FlightAware
10:42PM 40.0380 -80.1510 234° Southwest 449 517 38,000  Level FlightAware
10:42PM 39.9940 -80.2330 235° Southwest 450 518 38,000  Level FlightAware
10:43PM 39.9550 -80.3070 236° Southwest 452 520 38,000  Level FlightAware
10:43PM 39.9130 -80.3820 234° Southwest 452 520 38,000  Level FlightAware
10:44PM 39.8710 -80.4600 235° Southwest 452 520 38,000  Level FlightAware
10:45PM 39.8160 -80.5620 235° Southwest 452 520 38,000  Level FlightAware
10:45PM 39.7770 -80.6330 234° Southwest 451 519 38,000  Level FlightAware
10:46PM 39.7360 -80.7090 235° Southwest 452 520 38,000  Level FlightAware
10:47PM 39.6980 -80.7760 234° Southwest 452 520 38,000  Level FlightAware
10:47PM 39.6300 -80.9030 235° Southwest 453 521 38,000  Level FlightAware
10:48PM 39.5870 -80.9780 233° Southwest 453 521 38,000  Level FlightAware
10:49PM 39.5260 -81.0900 235° Southwest 453 521 38,000  Level FlightAware
10:49PM 39.4820 -81.1670 234° Southwest 454 522 38,000  Level FlightAware
10:50PM 39.4410 -81.2420 235° Southwest 454 522 38,000  Level FlightAware
10:50PM 39.3990 -81.3170 234° Southwest 454 522 38,000  Level FlightAware
10:51PM 39.3550 -81.3940 234° Southwest 454 522 38,000  Level FlightAware
10:51PM 39.3110 -81.4750 235° Southwest 454 522 38,000  Level FlightAware
10:52PM 39.2660 -81.5520 233° Southwest 455 524 38,000  Level FlightAware
10:53PM 39.2240 -81.6270 234° Southwest 454 522 38,000  Level FlightAware
10:53PM 39.1800 -81.7060 234° Southwest 453 521 38,000  Level FlightAware
10:54PM 39.1420 -81.7730 234° Southwest 452 520 38,000  Level FlightAware
10:54PM 39.0880 -81.8690 234° Southwest 451 519 38,000  Level FlightAware
10:55PM 39.0410 -81.9510 234° Southwest 450 518 38,000  Level FlightAware
10:56PM 39.0020 -82.0200 234° Southwest 450 518 38,000  Level FlightAware
10:56PM 38.9580 -82.0960 233° Southwest 450 518 38,000  Level FlightAware
10:57PM 38.9140 -82.1730 234° Southwest 447 514 38,000  Level FlightAware
10:57PM 38.8670 -82.2540 233° Southwest 447 514 38,000  Level FlightAware
10:58PM 38.8230 -82.3310 234° Southwest 446 513 38,000  Level FlightAware
10:59PM 38.7740 -82.4160 234° Southwest 445 512 38,000  Level FlightAware
10:59PM 38.7330 -82.4860 233° Southwest 445 512 38,000  Level FlightAware
11:00PM 38.6890 -82.5620 233° Southwest 445 512 38,000  Level FlightAware
11:00PM 38.6470 -82.6350 234° Southwest 445 512 38,000  Level FlightAware
11:01PM 38.6050 -82.7070 233° Southwest 446 513 38,000  Level FlightAware
11:02PM 38.5580 -82.7880 233° Southwest 446 513 38,000  Level FlightAware
11:02PM 38.5090 -82.8720 233° Southwest 445 512 38,000  Level FlightAware
11:03PM 38.4650 -82.9460 233° Southwest 444 511 38,000  Level FlightAware
11:03PM 38.4250 -83.0130 233° Southwest 445 512 38,000  Level FlightAware
11:04PM 38.3781 -83.0923 233° Southwest 445 512 38,000  Level FlightAware ADS-B
11:05PM 38.3360 -83.1660 234° Southwest 445 512 38,000  Level FlightAware
11:05PM 38.2940 -83.2350 232° Southwest 446 513 38,000  Level FlightAware
11:06PM 38.2490 -83.3100 233° Southwest 445 512 38,000  Level FlightAware
11:06PM 38.2040 -83.3880 234° Southwest 445 512 38,000  Level FlightAware
11:07PM 38.1590 -83.4630 233° Southwest 445 512 38,000  Level FlightAware
11:08PM 38.1200 -83.5270 232° Southwest 445 512 38,000  Level FlightAware
11:08PM 38.0780 -83.5980 233° Southwest 446 513 38,000  Level FlightAware
11:09PM 38.0310 -83.6750 232° Southwest 447 514 38,000  Level FlightAware
11:09PM 37.9890 -83.7460 233° Southwest 447 514 38,000  Level FlightAware
11:10PM 37.9440 -83.8190 232° Southwest 448 516 38,000  Level FlightAware
11:10PM 37.9062 -83.8815 233° Southwest 448 516 38,000  Level FlightAware ADS-B
11:11PM 37.8638 -83.9523 233° Southwest 449 517 38,000  Level FlightAware ADS-B
11:12PM 37.8105 -84.0398 232° Southwest 449 517 38,000  Level FlightAware ADS-B
11:12PM 37.7640 -84.1170 233° Southwest 450 518 38,000  Level FlightAware
11:13PM 37.7181 -84.1919 232° Southwest 451 519 38,000  Level FlightAware ADS-B
11:13PM 37.6780 -84.2570 232° Southwest 451 519 38,000  Level FlightAware
11:14PM 37.6294 -84.3356 232° Southwest 452 520 38,000  Level FlightAware ADS-B
11:15PM 37.5886 -84.4023 232° Southwest 452 520 38,000  Level FlightAware ADS-B
11:15PM 37.5494 -84.4668 233° Southwest 451 519 38,000  Level FlightAware ADS-B
11:16PM 37.5071 -84.5355 232° Southwest 453 521 38,000  Level FlightAware ADS-B
11:16PM 37.4602 -84.6101 232° Southwest 452 520 38,000  Level FlightAware ADS-B
11:17PM 37.4084 -84.6953 233° Southwest 452 520 38,000  Level FlightAware ADS-B
11:17PM 37.3697 -84.7575 232° Southwest 452 520 38,000  Level FlightAware ADS-B
11:18PM 37.3308 -84.8195 232° Southwest 452 520 38,000  Level FlightAware ADS-B
11:18PM 37.2921 -84.8815 232° Southwest 452 520 38,000  Level FlightAware ADS-B
11:19PM 37.2529 -84.9435 232° Southwest 452 520 38,000  Level FlightAware ADS-B
11:19PM 37.2134 -85.0074 232° Southwest 452 520 38,000  Level FlightAware ADS-B
11:20PM 37.1741 -85.0693 231° Southwest 452 520 38,000  Level FlightAware ADS-B
11:20PM 37.1345 -85.1361 233° Southwest 451 519 38,000  Level FlightAware ADS-B
11:21PM 37.1040 -85.1927 236° Southwest 453 521 38,000  Level FlightAware ADS-B
11:21PM 37.0709 -85.2624 239° Southwest 455 524 38,000  Level FlightAware ADS-B
11:22PM 37.0371 -85.3359 240° Southwest 458 527 38,000  Level FlightAware ADS-B
11:22PM 37.0049 -85.4076 241° Southwest 461 531 38,000  Level FlightAware ADS-B
11:23PM 36.9770 -85.4700 241° Southwest 461 531 38,000  Level FlightAware
11:23PM 36.9624 -85.5005 239° Southwest 461 531 38,000  Level FlightAware ADS-B
11:24PM 36.9283 -85.5775 241° Southwest 466 536 38,000  Level FlightAware ADS-B
11:24PM 36.8961 -85.6476 240° Southwest 467 537 38,000  Level FlightAware ADS-B
11:25PM 36.8613 -85.7226 240° Southwest 467 537 38,000  Level FlightAware ADS-B
11:25PM 36.8290 -85.7930 240° Southwest 469 540 38,000  Level FlightAware
11:26PM 36.7850 -85.8870 240° Southwest 470 541 38,000  Level FlightAware
11:26PM 36.7632 -85.9334 240° Southwest 470 541 38,000  Level FlightAware ADS-B
11:27PM 36.7296 -86.0058 240° Southwest 469 540 38,000  Level FlightAware ADS-B
11:27PM 36.6968 -86.0760 240° Southwest 468 539 38,000  Level FlightAware ADS-B
11:28PM 36.6639 -86.1459 240° Southwest 468 539 38,000  Level FlightAware ADS-B
11:28PM 36.6306 -86.2180 240° Southwest 470 541 38,000  Level FlightAware ADS-B
11:29PM 36.5964 -86.2905 240° Southwest 470 541 38,000  Level FlightAware ADS-B
11:29PM 36.5615 -86.3651 240° Southwest 471 542 38,000  Level FlightAware ADS-B
11:30PM 36.5060 -86.4840 240° Southwest 472 543 38,000  Level FlightAware
11:31PM 36.4700 -86.5570 238° Southwest 472 543 38,000  Level FlightAware
11:31PM 36.4300 -86.6440 240° Southwest 474 545 38,000  Level FlightAware
11:32PM 36.3900 -86.7280 239° Southwest 474 545 38,000  Level FlightAware
11:32PM 36.3550 -86.8010 239° Southwest 475 547 38,000  Level FlightAware
11:33PM 36.3140 -86.8850 239° Southwest 477 549 38,000  Level FlightAware
11:34PM 36.2740 -86.9700 240° Southwest 477 549 38,000  Level FlightAware
11:34PM 36.2380 -87.0450 239° Southwest 476 548 38,000  Level FlightAware
11:35PM 36.1970 -87.1290 239° Southwest 476 548 38,000 -300 Level FlightAware
11:35PM 36.1570 -87.2130 239° Southwest 466 536 37,700 -840 Descending FlightAware
11:36PM 36.1180 -87.2940 239° Southwest 463 533 37,000 -1,020 Descending FlightAware
11:36PM 36.0780 -87.3760 239° Southwest 462 532 36,500 -780 Descending FlightAware
11:37PM 36.0400 -87.4530 239° Southwest 465 535 36,100 -1,200 Descending FlightAware
11:38PM 35.9990 -87.5390 240° Southwest 474 545 35,100 -1,020 Descending FlightAware
11:38PM 35.9640 -87.6110 239° Southwest 476 548 35,000 -120 Descending FlightAware
11:39PM 35.9230 -87.6950 239° Southwest 477 549 35,000  Level FlightAware
11:39PM 35.8810 -87.7810 239° Southwest 477 549 35,000 -300 Level FlightAware
11:40PM 35.8400 -87.8620 238° Southwest 472 543 34,700 -840 Descending FlightAware
11:41PM 35.7990 -87.9450 239° Southwest 472 543 34,000 -1,020 Descending FlightAware
11:41PM 35.7430 -88.0580 239° Southwest 474 545 33,200 -540 Descending FlightAware
11:42PM 35.7080 -88.1280 238° Southwest 474 545 33,200  Level FlightAware
11:43PM 35.6720 -88.1980 238° Southwest 474 545 33,200  Level FlightAware
11:43PM 35.6360 -88.2680 238° Southwest 474 545 33,200  Level FlightAware
11:44PM 35.6010 -88.3380 238° Southwest 474 545 33,200  Level FlightAware
11:44PM 35.5650 -88.4080 238° Southwest 474 545 33,200  Level FlightAware
11:45PM 35.5300 -88.4780 238° Southwest 474 545 33,200  Level FlightAware
11:46PM 35.4930 -88.5500 238° Southwest 474 545 33,200  Level FlightAware
11:46PM 35.4580 -88.6200 238° Southwest 474 545 33,200  Level FlightAware
11:47PM 35.4220 -88.6900 238° Southwest 474 545 33,200  Level FlightAware
11:47PM 35.3860 -88.7600 238° Southwest 474 545 33,200  Level FlightAware
11:48PM 35.3510 -88.8290 238° Southwest 474 545 33,200  Level FlightAware
11:49PM 35.3150 -88.8990 238° Southwest 474 545 33,200  Level FlightAware
11:49PM 35.2800 -88.9690 239° Southwest 474 545 33,200  Level FlightAware
11:50PM 35.2440 -89.0380 237° Southwest 474 545 33,200  Level FlightAware
11:50PM 35.2090 -89.1080 239° Southwest 474 545 33,200  Level FlightAware
11:51PM 35.1840 -89.1560 238° Southwest 474 545 33,200 -15,120 Level FlightAware
11:52PM 35.0333 -89.1833 238° Southwest 276 318 8,600 -11,820 Descending KMEM
11:53PM 35.0400 -89.2564 276° West 288 331 7,300 -1,560 Descending Memphis Center
11:54PM 35.0428 -89.3553 272° West 288 331 5,600 -1,620 Descending Memphis Center
11:55PM 35.0458 -89.4492 272° West 288 331 4,100 -840 Descending Memphis Center
11:56PM 35.0483 -89.5403 272° West 283 326 4,000 -540 Descending Memphis Center
11:57PM 35.0511 -89.6367 272° West 283 326 3,100 -540 Descending Memphis Center
11:58PM 35.0558 -89.7281 274° West 283 326 3,000 -300 Descending Memphis Center
11:59PM 35.0561 -89.8092 270° West 257 296 2,500 -720 Descending Memphis Center
12:00AM 35.0586 -89.8778 273° West 219 252 1,600 -900 Descending Memphis Center
12:01AM 35.0586 -89.9283 270° West 172 198 800 -600 Descending Memphis Center
12:02AM 35.0589 -89.9917 270° West 163 188 500 -300 Descending Memphis Center
12:05AM 35.0424 -89.9767 270° West  Level Estimated
12:12AM 35.0424 -89.9767 270° West  Level Estimated
12:13AM 35.0424 -89.9767 270° West  Level Estimated
12:14AM 35.0424 -89.9767 270° West  Level Estimated
12:15AM 35.0424 -89.9767 270° West  Level Estimated
12:16AM 35.0424 -89.9767 270° West  Level Estimated
12:17AM 35.0424 -89.9767 270° West  Level Estimated
12:18AM 35.0424 -89.9767 270° West  Level Estimated
12:19AM 35.0424 -89.9767 270° West  Level Estimated
12:20AM 35.0424 -89.9767 270° West  Level Estimated